createdAt,value
2022-10-01T00:00:03.249Z,41.20
2022-10-01T00:02:55.751Z,38.30
2022-10-01T00:05:27.620Z,38.80
2022-10-01T00:07:59.352Z,39.70
2022-10-01T00:10:32.876Z,40.70
2022-10-01T00:13:05.016Z,40.80
2022-10-01T00:15:36.718Z,37.60
2022-10-01T00:18:09.111Z,38.10
2022-10-01T00:20:43.592Z,36.80
2022-10-01T00:23:16.803Z,39.10
2022-10-01T00:25:49.679Z,37.50
2022-10-01T00:28:21.777Z,39.20
2022-10-01T00:30:53.718Z,41.00
2022-10-01T00:33:25.469Z,37.30
2022-10-01T00:35:57.878Z,38.10
2022-10-01T00:38:30.031Z,40.50
2022-10-01T00:41:01.801Z,41.50
2022-10-01T00:43:34.933Z,39.80
2022-10-01T00:46:11.112Z,40.80
2022-10-01T00:48:47.814Z,39.70
2022-10-01T00:51:21.193Z,39.90
2022-10-01T00:53:52.974Z,40.20
2022-10-01T00:56:25.006Z,37.20
2022-10-01T00:58:57.129Z,38.30
2022-10-01T01:01:29.207Z,38.70
2022-10-01T01:04:01.631Z,39.20
2022-10-01T01:06:33.465Z,39.00
2022-10-01T01:09:05.203Z,38.90
2022-10-01T01:11:43.427Z,38.30
2022-10-01T01:14:19.300Z,40.30
2022-10-01T01:16:53.459Z,37.70
2022-10-01T01:19:34.923Z,38.70
2022-10-01T01:22:08.449Z,37.90
2022-10-01T01:24:49.091Z,38.50
2022-10-01T01:27:29.480Z,36.20
2022-10-01T01:30:05.358Z,36.70
2022-10-01T01:32:46.685Z,37.40
2022-10-01T01:35:22.312Z,35.40
2022-10-01T01:37:56.479Z,35.70
2022-10-01T01:40:29.643Z,38.30
2022-10-01T01:43:02.215Z,36.90
2022-10-01T01:45:35.711Z,37.70
2022-10-01T01:48:09.317Z,36.00
2022-10-01T01:50:46.445Z,36.40
2022-10-01T01:53:18.395Z,35.90
2022-10-01T01:55:51.359Z,36.10
2022-10-01T01:58:24.360Z,35.60
2022-10-01T02:00:56.430Z,35.00
2022-10-01T02:03:29.501Z,37.10
2022-10-01T02:06:09.454Z,36.30
2022-10-01T02:08:44.179Z,35.80
2022-10-01T02:11:26.948Z,36.60
2022-10-01T02:14:08.225Z,36.70
2022-10-01T02:16:48.265Z,38.20
2022-10-01T02:19:27.665Z,37.50
2022-10-01T02:22:02.211Z,36.70
2022-10-01T02:24:41.397Z,37.20
2022-10-01T02:27:17.369Z,35.50
2022-10-01T02:29:49.762Z,36.20
2022-10-01T02:32:22.084Z,36.30
2022-10-01T02:34:55.703Z,38.50
2022-10-01T02:37:29.158Z,39.70
2022-10-01T02:40:02.414Z,42.70
2022-10-01T02:42:35.927Z,43.30
2022-10-01T02:45:09.396Z,44.90
2022-10-01T02:47:44.534Z,46.10
2022-10-01T02:50:17.039Z,46.10
2022-10-01T02:52:53.825Z,44.70
2022-10-01T02:55:29.798Z,44.30
2022-10-01T02:58:01.542Z,44.50
2022-10-01T03:00:33.710Z,46.00
2022-10-01T03:03:05.461Z,47.00
2022-10-01T03:05:37.315Z,47.80
2022-10-01T03:08:09.305Z,46.60
2022-10-01T03:10:44.709Z,46.60
2022-10-01T03:13:19.929Z,47.40
2022-10-01T03:15:51.734Z,47.60
2022-10-01T03:18:23.572Z,50.50
2022-10-01T03:20:55.233Z,47.60
2022-10-01T03:23:27.017Z,47.50
2022-10-01T03:25:58.662Z,47.70
2022-10-01T03:28:30.502Z,45.90
2022-10-01T03:31:09.894Z,46.10
2022-10-01T03:33:41.707Z,47.20
2022-10-01T03:36:13.354Z,48.70
2022-10-01T03:38:45.180Z,48.80
2022-10-01T03:41:16.800Z,47.60
2022-10-01T03:43:48.625Z,45.80
2022-10-01T03:46:20.310Z,46.60
2022-10-01T03:48:52.265Z,45.90
2022-10-01T03:51:23.940Z,45.50
2022-10-01T03:53:56.708Z,46.80
2022-10-01T03:56:28.446Z,45.70
2022-10-01T03:59:00.265Z,46.10
2022-10-01T04:01:32.447Z,47.20
2022-10-01T04:04:05.369Z,47.70
2022-10-01T04:06:37.279Z,44.80
2022-10-01T04:09:09.827Z,44.60
2022-10-01T04:11:41.563Z,44.80
2022-10-01T04:14:13.423Z,46.20
2022-10-01T04:16:45.368Z,45.50
2022-10-01T04:19:17.562Z,46.20
2022-10-01T04:21:49.635Z,46.90
2022-10-01T04:24:21.572Z,49.90
2022-10-01T04:26:54.829Z,48.20
2022-10-01T04:29:26.811Z,40.40
2022-10-01T04:31:58.882Z,50.00
2022-10-01T04:34:44.753Z,53.20
2022-10-01T04:37:16.795Z,54.30
2022-10-01T04:39:48.902Z,48.80
2022-10-01T04:42:20.930Z,53.10
2022-10-01T04:44:52.981Z,48.30
2022-10-01T04:47:24.799Z,50.60
2022-10-01T04:49:56.629Z,51.50
2022-10-01T04:52:28.821Z,53.30
2022-10-01T04:55:01.469Z,53.40
2022-10-01T04:57:33.258Z,45.90
2022-10-01T05:00:06.427Z,53.50
2022-10-01T05:02:38.160Z,54.70
2022-10-01T05:05:11.380Z,54.10
2022-10-01T05:07:44.496Z,31.30
2022-10-01T05:10:18.292Z,54.40
2022-10-01T05:12:52.098Z,40.00
2022-10-01T05:15:24.222Z,49.70
2022-10-01T05:17:55.943Z,50.60
2022-10-01T05:20:29.282Z,48.80
2022-10-01T05:23:01.028Z,44.10
2022-10-01T05:25:33.393Z,45.60
2022-10-01T05:28:06.039Z,45.30
2022-10-01T05:30:38.347Z,36.10
2022-10-01T05:33:10.040Z,48.70
2022-10-01T05:35:43.106Z,51.20
2022-10-01T05:38:14.983Z,41.40
2022-10-01T05:40:49.066Z,53.30
2022-10-01T05:45:51.383Z,44.20
2022-10-01T05:48:23.132Z,48.00
2022-10-01T05:50:55.224Z,51.40
2022-10-01T05:53:27.692Z,50.70
2022-10-01T05:56:03.130Z,52.10
2022-10-01T05:58:35.337Z,43.60
2022-10-01T06:01:07.547Z,61.10
2022-10-01T06:03:39.297Z,64.30
2022-10-01T06:06:11.210Z,66.10
2022-10-01T06:08:47.284Z,69.80
2022-10-01T06:11:19.815Z,83.10
2022-10-01T06:13:51.565Z,77.50
2022-10-01T06:16:23.308Z,73.00
2022-10-01T06:18:57.839Z,62.40
2022-10-01T06:21:30.751Z,65.50
2022-10-01T06:24:02.894Z,60.80
2022-10-01T06:26:34.731Z,62.00
2022-10-01T06:29:06.485Z,52.40
2022-10-01T06:31:38.970Z,62.20
2022-10-01T06:34:10.940Z,61.10
2022-10-01T06:36:42.896Z,62.80
2022-10-01T06:39:14.948Z,59.90
2022-10-01T06:41:48.490Z,62.60
2022-10-01T06:44:20.787Z,63.40
2022-10-01T06:46:54.336Z,67.90
2022-10-01T06:49:26.985Z,58.50
2022-10-01T06:52:16.506Z,71.60
2022-10-01T06:54:48.283Z,72.10
2022-10-01T06:57:20.084Z,73.90
2022-10-01T06:59:52.410Z,72.80
2022-10-01T07:02:28.197Z,73.40
2022-10-01T07:05:00.050Z,67.70
2022-10-01T07:07:35.160Z,64.10
2022-10-01T07:10:09.072Z,65.40
2022-10-01T07:15:12.259Z,66.40
2022-10-01T07:17:48.468Z,61.10
2022-10-01T07:20:21.454Z,63.00
2022-10-01T07:22:59.527Z,64.30
2022-10-01T07:25:31.530Z,64.50
2022-10-01T07:28:05.491Z,59.50
2022-10-01T07:30:40.628Z,54.10
2022-10-01T07:33:13.418Z,51.80
2022-10-01T07:35:48.892Z,51.50
2022-10-01T07:38:20.702Z,49.60
2022-10-01T07:40:55.052Z,48.50
2022-10-01T07:43:26.836Z,49.20
2022-10-01T07:46:00.286Z,47.60
2022-10-01T07:48:32.317Z,47.00
2022-10-01T07:51:04.328Z,44.50
2022-10-01T07:53:36.858Z,43.70
2022-10-01T07:56:08.689Z,41.40
2022-10-01T07:58:42.309Z,40.10
2022-10-01T08:01:13.888Z,40.30
2022-10-01T08:03:45.927Z,39.80
2022-10-01T08:06:21.935Z,38.60
2022-10-01T08:08:56.472Z,37.20
2022-10-01T08:11:28.126Z,36.30
2022-10-01T08:13:59.994Z,37.10
2022-10-01T08:16:33.784Z,35.20
2022-10-01T08:21:36.847Z,28.70
2022-10-01T08:24:09.370Z,29.80
2022-10-01T08:26:41.163Z,27.30
2022-10-01T08:29:16.935Z,26.70
2022-10-01T08:31:49.365Z,25.00
2022-10-01T08:34:21.575Z,24.40
2022-10-01T08:36:54.762Z,22.60
2022-10-01T08:39:26.828Z,22.90
2022-10-01T08:42:06.464Z,21.50
2022-10-01T08:44:42.378Z,21.50
2022-10-01T08:47:19.847Z,22.00
2022-10-01T08:49:54.946Z,21.00
2022-10-01T08:52:29.825Z,20.60
2022-10-01T08:55:03.393Z,22.30
2022-10-01T08:57:39.274Z,21.50
2022-10-01T09:00:15.215Z,22.60
2022-10-01T09:02:47.858Z,22.20
2022-10-01T09:05:25.486Z,22.60
2022-10-01T09:08:05.412Z,21.20
2022-10-01T09:10:45.804Z,20.40
2022-10-01T09:13:34.081Z,21.80
2022-10-01T09:16:13.614Z,23.00
2022-10-01T09:18:58.253Z,22.30
2022-10-01T09:21:41.401Z,21.10
2022-10-01T09:24:16.854Z,21.10
2022-10-01T09:26:49.958Z,22.90
2022-10-01T09:29:26.902Z,23.50
2022-10-01T09:31:59.216Z,22.20
2022-10-01T09:34:34.360Z,22.40
2022-10-01T09:37:14.914Z,23.20
2022-10-01T09:39:55.053Z,24.70
2022-10-01T09:42:29.048Z,25.40
2022-10-01T09:45:00.882Z,24.50
2022-10-01T09:47:35.365Z,26.50
2022-10-01T09:50:11.124Z,26.30
2022-10-01T09:52:43.805Z,27.60
2022-10-01T09:55:26.972Z,26.70
2022-10-01T09:58:03.534Z,24.40
2022-10-01T10:00:35.330Z,25.90
2022-10-01T10:03:07.577Z,24.00
2022-10-01T10:05:49.593Z,22.90
2022-10-01T10:08:26.944Z,21.50
2022-10-01T10:11:01.557Z,20.20
2022-10-01T10:13:39.126Z,20.30
2022-10-01T10:16:17.160Z,20.80
2022-10-01T10:18:52.347Z,21.70
2022-10-01T10:21:26.877Z,21.60
2022-10-01T10:24:00.292Z,21.70
2022-10-01T10:26:33.868Z,21.10
2022-10-01T10:29:08.445Z,23.30
2022-10-01T10:31:44.252Z,26.40
2022-10-01T10:34:19.132Z,27.50
2022-10-01T10:36:53.380Z,27.60
2022-10-01T10:39:29.472Z,29.80
2022-10-01T10:42:02.397Z,29.30
2022-10-01T10:44:38.964Z,29.70
2022-10-01T10:47:14.928Z,30.60
2022-10-01T10:49:48.754Z,28.90
2022-10-01T10:52:30.895Z,29.60
2022-10-01T10:55:04.554Z,30.50
2022-10-01T10:57:38.043Z,31.30
2022-10-01T11:00:16.796Z,30.40
2022-10-01T11:02:55.822Z,30.70
2022-10-01T11:05:30.251Z,30.60
2022-10-01T11:08:04.207Z,30.70
2022-10-01T11:10:46.178Z,27.30
2022-10-01T11:13:42.380Z,27.70
2022-10-01T11:16:27.842Z,25.30
2022-10-01T11:19:07.852Z,24.70
2022-10-01T11:21:55.443Z,26.90
2022-10-01T11:24:43.703Z,25.00
2022-10-01T11:27:24.509Z,25.40
2022-10-01T11:30:03.524Z,24.40
2022-10-01T11:32:41.567Z,23.20
2022-10-01T11:35:40.616Z,23.10
2022-10-01T11:38:40.074Z,22.60
2022-10-01T11:41:23.812Z,23.00
2022-10-01T11:43:58.895Z,21.10
2022-10-01T11:46:43.093Z,20.70
2022-10-01T11:52:15.889Z,18.10
2022-10-01T11:54:57.618Z,17.70
2022-10-01T11:57:46.309Z,17.30
2022-10-01T12:00:18.145Z,14.20
2022-10-01T12:02:54.070Z,14.80
2022-10-01T12:05:28.799Z,12.50
2022-10-01T12:08:07.346Z,12.80
2022-10-01T12:10:44.438Z,12.20
2022-10-01T12:13:22.901Z,11.90
2022-10-01T12:15:59.040Z,11.50
2022-10-01T12:18:34.492Z,11.90
2022-10-01T12:21:13.232Z,12.60
2022-10-01T12:23:47.493Z,12.00
2022-10-01T12:26:23.760Z,12.60
2022-10-01T12:29:00.531Z,11.20
2022-10-01T12:31:39.781Z,10.70
2022-10-01T12:34:16.474Z,8.90
2022-10-01T12:36:55.971Z,9.80
2022-10-01T12:39:37.689Z,9.50
2022-10-01T12:42:20.869Z,7.50
2022-10-01T12:45:02.651Z,8.10
2022-10-01T12:47:42.205Z,9.10
2022-10-01T12:50:26.548Z,8.70
2022-10-01T12:53:16.633Z,7.90
2022-10-01T12:56:01.092Z,7.00
2022-10-01T12:58:46.777Z,7.10
2022-10-01T13:01:28.401Z,7.10
2022-10-01T13:04:24.535Z,6.30
2022-10-01T13:07:05.627Z,6.30
2022-10-01T13:09:48.665Z,6.00
2022-10-01T13:12:34.385Z,6.40
2022-10-01T13:15:07.016Z,5.40
2022-10-01T13:17:43.292Z,5.10
2022-10-01T13:20:18.408Z,5.00
2022-10-01T13:22:54.934Z,4.70
2022-10-01T13:25:33.765Z,4.90
2022-10-01T13:28:13.652Z,5.40
2022-10-01T13:30:56.036Z,5.70
2022-10-01T13:33:29.333Z,5.30
2022-10-01T13:36:02.803Z,5.80
2022-10-01T13:38:44.130Z,5.70
2022-10-01T13:41:22.635Z,5.70
2022-10-01T13:43:58.323Z,5.20
2022-10-01T13:46:33.248Z,6.00
2022-10-01T13:49:09.388Z,6.00
2022-10-01T13:51:41.881Z,6.20
2022-10-01T13:54:27.823Z,6.40
2022-10-01T13:57:10.212Z,5.40
2022-10-01T13:59:43.637Z,5.90
2022-10-01T14:02:32.018Z,6.00
2022-10-01T14:05:23.975Z,5.60
2022-10-01T14:08:11.493Z,5.90
2022-10-01T14:11:06.459Z,6.80
2022-10-01T14:14:03.534Z,7.20
2022-10-01T14:16:39.149Z,6.90
2022-10-01T14:19:11.658Z,7.00
2022-10-01T14:21:53.518Z,7.30
2022-10-01T14:24:31.871Z,7.40
2022-10-01T14:27:09.604Z,7.30
2022-10-01T14:29:50.254Z,7.20
2022-10-01T14:32:30.283Z,8.30
2022-10-01T14:35:20.828Z,7.90
2022-10-01T14:37:52.833Z,9.00
2022-10-01T14:40:25.610Z,9.40
2022-10-01T14:43:02.282Z,9.70
2022-10-01T14:45:34.313Z,10.50
2022-10-01T14:48:07.889Z,11.60
2022-10-01T14:50:40.356Z,11.40
2022-10-01T14:53:16.034Z,11.10
2022-10-01T14:55:49.384Z,12.60
2022-10-01T14:58:26.887Z,12.20
2022-10-01T15:00:59.247Z,12.70
2022-10-01T15:03:38.655Z,12.10
2022-10-01T15:06:14.784Z,13.50
2022-10-01T15:08:47.958Z,13.20
2022-10-01T15:11:21.210Z,13.80
2022-10-01T15:13:54.737Z,14.50
2022-10-01T15:18:59.479Z,13.70
2022-10-01T15:21:36.106Z,14.60
2022-10-01T15:24:12.218Z,15.40
2022-10-01T15:26:44.399Z,15.60
2022-10-01T15:29:18.423Z,15.10
2022-10-01T15:31:53.226Z,15.00
2022-10-01T15:34:27.154Z,15.00
2022-10-01T15:39:33.394Z,15.20
2022-10-01T15:42:09.659Z,15.70
2022-10-01T15:44:45.644Z,16.00
2022-10-01T15:47:29.375Z,16.70
2022-10-01T15:50:19.542Z,15.60
2022-10-01T15:53:00.248Z,17.20
2022-10-01T15:55:36.553Z,17.30
2022-10-01T15:58:15.214Z,17.30
2022-10-01T16:00:57.945Z,16.60
2022-10-01T16:03:33.629Z,16.70
2022-10-01T16:06:07.200Z,16.90
2022-10-01T16:08:50.456Z,16.30
2022-10-01T16:11:27.822Z,16.50
2022-10-01T16:14:29.936Z,17.10
2022-10-01T16:17:33.839Z,17.50
2022-10-01T16:20:43.920Z,16.90
2022-10-01T16:23:43.960Z,16.40
2022-10-01T16:26:34.997Z,16.80
2022-10-01T16:29:14.339Z,17.90
2022-10-01T16:31:46.731Z,17.30
2022-10-01T16:34:19.932Z,16.60
2022-10-01T16:36:52.254Z,16.30
2022-10-01T16:39:25.375Z,17.10
2022-10-01T16:42:22.165Z,18.10
2022-10-01T16:44:48.928Z,17.30
2022-10-01T16:47:20.545Z,17.20
2022-10-01T16:49:53.466Z,18.40
2022-10-01T16:52:25.072Z,18.70
2022-10-01T16:54:57.103Z,19.70
2022-10-01T16:57:28.962Z,20.20
2022-10-01T17:00:00.611Z,20.80
2022-10-01T17:02:32.363Z,20.30
2022-10-01T17:05:04.182Z,20.70
2022-10-01T17:07:35.832Z,19.20
2022-10-01T17:10:08.667Z,19.10
2022-10-01T17:12:40.837Z,20.60
2022-10-01T17:15:17.341Z,19.90
2022-10-01T17:17:49.327Z,20.30
2022-10-01T17:20:21.526Z,22.30
2022-10-01T17:22:53.911Z,23.20
2022-10-01T17:25:28.050Z,22.00
2022-10-01T17:28:01.308Z,22.50
2022-10-01T17:30:33.791Z,23.20
2022-10-01T17:33:05.905Z,22.80
2022-10-01T17:35:38.434Z,24.10
2022-10-01T17:38:11.952Z,23.90
2022-10-01T17:40:45.301Z,25.40
2022-10-01T17:43:18.394Z,25.40
2022-10-01T17:45:57.964Z,25.70
2022-10-01T17:48:30.475Z,25.00
2022-10-01T17:51:05.799Z,26.70
2022-10-01T17:53:42.483Z,24.70
2022-10-01T17:56:16.365Z,29.50
2022-10-01T17:58:48.177Z,26.10
2022-10-01T18:01:22.291Z,25.70
2022-10-01T18:03:57.657Z,26.30
2022-10-01T18:06:29.826Z,27.00
2022-10-01T18:09:02.008Z,26.30
2022-10-01T18:11:34.391Z,25.60
2022-10-01T18:14:07.820Z,26.40
2022-10-01T18:16:40.213Z,27.70
2022-10-01T18:22:13.572Z,28.20
2022-10-01T18:24:46.187Z,27.30
2022-10-01T18:27:17.942Z,26.70
2022-10-01T18:29:49.679Z,29.10
2022-10-01T18:32:24.104Z,28.80
2022-10-01T18:34:57.977Z,28.10
2022-10-01T18:37:39.848Z,29.00
2022-10-01T18:40:16.911Z,29.70
2022-10-01T18:42:52.943Z,29.80
2022-10-01T18:45:35.170Z,29.90
2022-10-01T18:48:17.680Z,30.50
2022-10-01T18:50:53.717Z,30.70
2022-10-01T18:53:34.891Z,29.90
2022-10-01T18:56:27.598Z,29.70
2022-10-01T18:59:19.357Z,29.70
2022-10-01T19:02:00.662Z,30.90
2022-10-01T19:04:49.361Z,29.30
2022-10-01T19:07:32.428Z,31.10
2022-10-01T19:10:11.118Z,31.70
2022-10-01T19:12:54.824Z,29.90
2022-10-01T19:15:34.775Z,31.80
2022-10-01T19:18:17.444Z,31.40
2022-10-01T19:20:55.521Z,32.90
2022-10-01T19:24:01.043Z,32.20
2022-10-01T19:26:37.779Z,32.30
2022-10-01T19:29:22.468Z,33.50
2022-10-01T19:31:56.701Z,34.00
2022-10-01T19:34:31.483Z,34.70
2022-10-01T19:37:08.302Z,37.60
2022-10-01T19:39:42.582Z,37.70
2022-10-01T19:42:17.789Z,39.00
2022-10-01T19:44:55.773Z,38.70
2022-10-01T19:47:36.336Z,38.50
2022-10-01T19:50:21.281Z,40.30
2022-10-01T19:52:55.229Z,39.20
2022-10-01T19:55:27.722Z,40.50
2022-10-01T19:57:59.633Z,40.90
2022-10-01T20:00:31.844Z,42.80
2022-10-01T20:03:09.070Z,44.70
2022-10-01T20:05:45.986Z,46.00
2022-10-01T20:08:25.089Z,47.30
2022-10-01T20:10:58.673Z,49.00
2022-10-01T20:13:41.981Z,51.80
2022-10-01T20:16:19.611Z,54.90
2022-10-01T20:18:57.445Z,53.90
2022-10-01T20:21:45.574Z,55.70
2022-10-01T20:24:28.961Z,58.50
2022-10-01T20:27:11.730Z,59.00
2022-10-01T20:29:50.530Z,55.10
2022-10-01T20:32:25.994Z,54.40
2022-10-01T20:35:07.538Z,52.80
2022-10-01T20:37:48.230Z,51.20
2022-10-01T20:40:25.227Z,50.10
2022-10-01T20:43:04.350Z,49.70
2022-10-01T20:45:37.429Z,49.00
2022-10-01T20:48:14.931Z,50.30
2022-10-01T20:50:48.947Z,51.20
2022-10-01T20:53:26.949Z,50.60
2022-10-01T20:56:04.274Z,51.20
2022-10-01T20:58:44.671Z,51.40
2022-10-01T21:01:20.629Z,52.70
2022-10-01T21:03:57.027Z,54.10
2022-10-01T21:06:35.577Z,52.80
2022-10-01T21:09:15.842Z,54.00
2022-10-01T21:11:49.322Z,54.40
2022-10-01T21:14:26.791Z,53.40
2022-10-01T21:17:13.035Z,53.00
2022-10-01T21:19:54.869Z,52.70
2022-10-01T21:22:38.832Z,52.90
2022-10-01T21:31:20.969Z,49.50
2022-10-01T21:33:54.240Z,48.70
2022-10-01T21:36:31.145Z,41.00
2022-10-01T21:39:05.586Z,39.00
2022-10-01T21:41:42.975Z,38.90
2022-10-01T21:45:00.226Z,41.80
2022-10-01T21:47:36.275Z,41.90
2022-10-01T21:50:09.987Z,33.80
2022-10-01T21:52:46.563Z,31.30
2022-10-01T21:55:29.562Z,30.30
2022-10-01T21:58:07.658Z,28.70
2022-10-01T22:00:37.905Z,30.30
2022-10-01T22:03:18.583Z,29.90
2022-10-01T22:05:58.288Z,29.40
2022-10-01T22:08:39.878Z,27.80
2022-10-01T22:11:12.559Z,28.10
2022-10-01T22:13:47.313Z,26.00
2022-10-01T22:16:22.537Z,26.60
2022-10-01T22:18:53.861Z,24.60
2022-10-01T22:21:30.671Z,24.90
2022-10-01T22:24:07.468Z,24.40
2022-10-01T22:26:40.223Z,24.90
2022-10-01T22:29:15.401Z,24.50
2022-10-01T22:31:45.979Z,24.80
2022-10-01T22:34:17.618Z,24.20
2022-10-01T22:36:48.977Z,24.40
2022-10-01T22:39:21.478Z,23.10
2022-10-01T22:41:52.947Z,24.50
2022-10-01T22:44:23.385Z,20.60
2022-10-01T22:47:13.581Z,19.50
2022-10-01T22:49:59.908Z,19.10
2022-10-01T22:52:39.530Z,18.00
2022-10-01T22:55:28.492Z,18.40
2022-10-01T22:58:08.846Z,15.70
2022-10-01T23:00:49.319Z,13.90
2022-10-01T23:03:23.091Z,13.70
2022-10-01T23:06:00.363Z,14.40
2022-10-01T23:08:32.945Z,14.80
2022-10-01T23:11:11.539Z,14.10
2022-10-01T23:13:46.962Z,11.20
2022-10-01T23:16:23.185Z,11.60
2022-10-01T23:19:05.371Z,10.40
2022-10-01T23:21:41.637Z,11.10
2022-10-01T23:24:27.438Z,10.60
2022-10-01T23:27:06.613Z,11.10
2022-10-01T23:29:53.178Z,11.20
2022-10-01T23:32:31.691Z,11.30
2022-10-01T23:35:03.745Z,11.20
2022-10-01T23:37:47.006Z,12.30
2022-10-01T23:40:17.622Z,10.10
2022-10-01T23:42:52.659Z,11.60
2022-10-01T23:45:23.879Z,11.00
2022-10-01T23:48:00.409Z,11.10
2022-10-01T23:50:40.460Z,10.40
2022-10-01T23:53:18.734Z,10.00
2022-10-01T23:56:10.925Z,10.10
2022-10-01T23:58:48.492Z,10.10
